createdAt,value
2022-11-01T00:02:07.667Z,99443.44
2022-11-01T00:04:36.002Z,99441.41
2022-11-01T00:07:07.295Z,99440.56
2022-11-01T00:09:35.972Z,99429.84
2022-11-01T00:12:04.957Z,99434.09
2022-11-01T00:14:34.567Z,99432.66
2022-11-01T00:17:03.559Z,99428.81
2022-11-01T00:19:31.830Z,99420.88
2022-11-01T00:22:00.200Z,99422.31
2022-11-01T00:24:31.031Z,99425.97
2022-11-01T00:26:59.971Z,99419.91
2022-11-01T00:29:28.295Z,99414.59
2022-11-01T00:31:58.280Z,99410.75
2022-11-01T00:34:26.601Z,99397.53
2022-11-01T00:36:55.121Z,99401.00
2022-11-01T00:39:27.458Z,99398.78
2022-11-01T00:41:59.781Z,99402.03
2022-11-01T00:44:28.282Z,99402.03
2022-11-01T00:46:58.000Z,99404.03
2022-11-01T00:49:26.469Z,99396.34
2022-11-01T00:51:54.698Z,99413.19
2022-11-01T00:54:24.322Z,99406.28
2022-11-01T00:56:52.759Z,99400.19
2022-11-01T00:59:22.211Z,99404.84
2022-11-01T01:01:50.744Z,99405.25
2022-11-01T01:04:20.871Z,99410.53
2022-11-01T01:06:50.759Z,99408.50
2022-11-01T01:09:19.059Z,99404.03
2022-11-01T01:11:47.747Z,99414.59
2022-11-01T01:14:16.068Z,99421.91
2022-11-01T01:16:44.439Z,99416.66
2022-11-01T01:19:12.746Z,99412.56
2022-11-01T01:21:42.406Z,99420.88
2022-11-01T01:24:11.174Z,99427.19
2022-11-01T01:26:39.572Z,99432.47
2022-11-01T01:29:07.997Z,99443.22
2022-11-01T01:31:37.577Z,99434.72
2022-11-01T01:34:05.880Z,99435.91
2022-11-01T01:36:34.180Z,99421.31
2022-11-01T01:39:04.348Z,99421.91
2022-11-01T01:41:50.074Z,99432.06
2022-11-01T01:45:17.870Z,99431.88
2022-11-01T01:47:53.381Z,99431.69
2022-11-01T01:50:32.280Z,99430.63
2022-11-01T01:53:07.627Z,99440.59
2022-11-01T01:55:43.251Z,99447.09
2022-11-01T01:58:15.671Z,99446.28
2022-11-01T02:00:49.625Z,99440.38
2022-11-01T02:03:31.213Z,99439.75
2022-11-01T02:06:05.780Z,99427.00
2022-11-01T02:08:44.632Z,99430.25
2022-11-01T02:11:17.802Z,99434.72
2022-11-01T02:13:46.423Z,99438.34
2022-11-01T02:16:48.358Z,99423.53
2022-11-01T02:20:05.820Z,99425.56
2022-11-01T02:23:37.218Z,99424.94
2022-11-01T02:26:46.215Z,99414.00
2022-11-01T02:29:44.701Z,99420.69
2022-11-01T02:32:21.790Z,99415.81
2022-11-01T02:34:58.876Z,99418.06
2022-11-01T02:37:31.502Z,99424.56
2022-11-01T02:40:07.226Z,99425.97
2022-11-01T02:42:43.405Z,99429.63
2022-11-01T02:45:28.886Z,99427.81
2022-11-01T02:48:03.725Z,99444.25
2022-11-01T02:50:38.164Z,99431.03
2022-11-01T02:53:07.769Z,99437.75
2022-11-01T02:55:36.244Z,99441.41
2022-11-01T02:58:08.026Z,99426.38
2022-11-01T03:00:37.915Z,99433.09
2022-11-01T03:03:17.979Z,99434.91
2022-11-01T03:06:01.277Z,99438.56
2022-11-01T03:08:36.338Z,99434.53
2022-11-01T03:11:10.044Z,99431.25
2022-11-01T03:13:58.939Z,99440.78
2022-11-01T03:16:33.120Z,99436.75
2022-11-01T03:19:31.063Z,99438.16
2022-11-01T03:22:05.002Z,99431.06
2022-11-01T03:24:40.805Z,99443.03
2022-11-01T03:27:16.527Z,99448.13
2022-11-01T03:29:56.307Z,99449.13
2022-11-01T03:32:29.464Z,99455.81
2022-11-01T03:35:02.326Z,99455.00
2022-11-01T03:37:34.370Z,99472.06
2022-11-01T03:40:05.679Z,99468.63
2022-11-01T03:42:35.938Z,99459.28
2022-11-01T03:45:11.804Z,99458.28
2022-11-01T03:47:40.359Z,99465.78
2022-11-01T03:50:30.284Z,99465.78
2022-11-01T03:52:58.828Z,99473.09
2022-11-01T03:55:27.615Z,99467.81
2022-11-01T03:57:58.260Z,99476.13
2022-11-01T04:00:31.513Z,99479.78
2022-11-01T04:03:00.928Z,99484.84
2022-11-01T04:05:33.393Z,99486.69
2022-11-01T04:08:05.769Z,99495.41
2022-11-01T04:10:35.011Z,99501.50
2022-11-01T04:13:04.011Z,99503.94
2022-11-01T04:15:50.522Z,99500.66
2022-11-01T04:21:13.362Z,99513.88
2022-11-01T04:23:42.144Z,99511.25
2022-11-01T04:26:14.564Z,99510.81
2022-11-01T04:28:44.838Z,99516.91
2022-11-01T04:31:13.145Z,99520.97
2022-11-01T04:33:41.769Z,99524.84
2022-11-01T04:36:12.141Z,99532.56
2022-11-01T04:38:40.392Z,99533.72
2022-11-01T04:41:09.020Z,99553.47
2022-11-01T04:43:37.408Z,99551.81
2022-11-01T04:46:05.991Z,99559.91
2022-11-01T04:48:34.341Z,99562.31
2022-11-01T04:51:03.460Z,99562.16
2022-11-01T04:53:33.335Z,99568.00
2022-11-01T04:56:03.774Z,99569.00
2022-11-01T04:58:33.314Z,99571.03
2022-11-01T05:01:08.475Z,99577.06
2022-11-01T05:03:37.813Z,99588.44
2022-11-01T05:06:06.749Z,99591.34
2022-11-01T05:08:36.674Z,99592.44
2022-11-01T05:11:05.312Z,99599.50
2022-11-01T05:13:33.960Z,99609.50
2022-11-01T05:16:18.999Z,99621.91
2022-11-01T05:18:48.634Z,99629.69
2022-11-01T05:21:17.575Z,99625.41
2022-11-01T05:23:49.688Z,99631.56
2022-11-01T05:26:20.311Z,99629.25
2022-11-01T05:28:49.137Z,99629.25
2022-11-01T05:31:17.575Z,99643.88
2022-11-01T05:33:46.175Z,99643.94
2022-11-01T05:36:14.894Z,99645.13
2022-11-01T05:38:43.041Z,99656.81
2022-11-01T05:43:42.320Z,99674.66
2022-11-01T05:46:10.634Z,99676.19
2022-11-01T05:48:39.012Z,99665.94
2022-11-01T05:51:07.724Z,99684.56
2022-11-01T05:53:36.399Z,99693.59
2022-11-01T05:56:05.000Z,99690.09
2022-11-01T05:58:34.943Z,99697.56
2022-11-01T06:01:05.816Z,99708.72
2022-11-01T06:03:35.444Z,99711.44
2022-11-01T06:06:04.299Z,99719.31
2022-11-01T06:08:34.174Z,99728.75
2022-11-01T06:11:04.127Z,99704.53
2022-11-01T06:13:34.567Z,99732.47
2022-11-01T06:16:04.450Z,99737.19
2022-11-01T06:18:33.185Z,99733.31
2022-11-01T06:21:02.622Z,99743.94
2022-11-01T06:23:30.963Z,99747.06
2022-11-01T06:26:04.043Z,99764.19
2022-11-01T06:28:34.201Z,99765.94
2022-11-01T06:31:07.080Z,99765.03
2022-11-01T06:33:35.509Z,99778.66
2022-11-01T06:36:04.832Z,99784.84
2022-11-01T06:38:33.155Z,99790.75
2022-11-01T06:41:01.724Z,99798.78
2022-11-01T06:43:30.252Z,99816.50
2022-11-01T06:46:02.192Z,99814.22
2022-11-01T06:48:30.974Z,99816.88
2022-11-01T06:50:59.296Z,99822.19
2022-11-01T06:53:28.185Z,99833.84
2022-11-01T06:55:59.007Z,99836.06
2022-11-01T06:58:27.666Z,99852.75
2022-11-01T07:00:56.193Z,99851.47
2022-11-01T07:03:26.317Z,99872.38
2022-11-01T07:05:54.754Z,99861.06
2022-11-01T07:08:23.051Z,99862.06
2022-11-01T07:10:52.615Z,99892.66
2022-11-01T07:13:21.070Z,99903.16
2022-11-01T07:15:49.634Z,99906.25
2022-11-01T07:18:18.138Z,99902.69
2022-11-01T07:20:48.102Z,99902.50
2022-11-01T07:23:19.519Z,99908.41
2022-11-01T07:25:52.640Z,99916.94
2022-11-01T07:28:21.394Z,99924.81
2022-11-01T07:30:51.852Z,99931.03
2022-11-01T07:33:21.245Z,99927.78
2022-11-01T07:35:52.547Z,99935.63
2022-11-01T07:38:21.495Z,99934.63
2022-11-01T07:40:52.205Z,99942.16
2022-11-01T07:43:20.628Z,99938.22
2022-11-01T07:45:49.997Z,99943.31
2022-11-01T07:48:20.133Z,99946.44
2022-11-01T07:50:49.795Z,99956.75
2022-11-01T07:53:20.154Z,99959.53
2022-11-01T07:55:48.904Z,99956.03
2022-11-01T07:58:18.245Z,99953.25
2022-11-01T08:00:47.078Z,99957.22
2022-11-01T08:03:18.240Z,99963.81
2022-11-01T08:05:48.071Z,99974.97
2022-11-01T08:08:18.043Z,99974.28
2022-11-01T08:10:46.990Z,99967.59
2022-11-01T08:13:18.107Z,99977.56
2022-11-01T08:15:47.276Z,99980.53
2022-11-01T08:18:16.194Z,99972.50
2022-11-01T08:20:44.558Z,99982.50
2022-11-01T08:23:13.018Z,99985.13
2022-11-01T08:25:42.873Z,99976.28
2022-11-01T08:28:15.330Z,99989.56
2022-11-01T08:30:46.462Z,99990.50
2022-11-01T08:33:15.417Z,99988.38
2022-11-01T08:35:50.129Z,99989.84
2022-11-01T08:38:19.154Z,99983.97
2022-11-01T08:40:49.131Z,99988.00
2022-11-01T08:43:17.794Z,99995.72
2022-11-01T08:45:46.605Z,99997.03
2022-11-01T08:48:15.474Z,100007.56
2022-11-01T08:50:43.758Z,99994.25
2022-11-01T08:53:15.759Z,100001.41
2022-11-01T08:55:44.203Z,100006.47
2022-11-01T08:58:14.139Z,100007.69
2022-11-01T09:00:42.690Z,100007.09
2022-11-01T09:03:11.073Z,100019.22
2022-11-01T09:05:39.365Z,100018.78
2022-11-01T09:08:08.093Z,100023.91
2022-11-01T09:10:36.724Z,100033.88
2022-11-01T09:13:05.382Z,100031.31
2022-11-01T09:15:35.241Z,100038.13
2022-11-01T09:18:07.527Z,100036.63
2022-11-01T09:20:35.925Z,100033.47
2022-11-01T09:23:04.629Z,100022.50
2022-11-01T09:25:33.293Z,100032.66
2022-11-01T09:28:01.691Z,100031.00
2022-11-01T09:30:30.365Z,100040.19
2022-11-01T09:33:00.537Z,100044.38
2022-11-01T09:35:29.805Z,100046.34
2022-11-01T09:38:02.169Z,100042.31
2022-11-01T09:40:39.175Z,100042.38
2022-11-01T09:43:10.339Z,100049.78
2022-11-01T09:45:38.850Z,100043.84
2022-11-01T09:48:09.228Z,100046.16
2022-11-01T09:50:40.671Z,100051.41
2022-11-01T09:53:16.427Z,100056.19
2022-11-01T09:55:52.058Z,100058.75
2022-11-01T09:58:37.671Z,100056.53
2022-11-01T10:01:31.612Z,100057.81
2022-11-01T10:07:26.021Z,100060.81
2022-11-01T10:10:04.795Z,100074.44
2022-11-01T10:12:50.881Z,100073.38
2022-11-01T10:15:38.585Z,100081.88
2022-11-01T10:18:23.103Z,100072.94
2022-11-01T10:20:53.118Z,100090.72
2022-11-01T10:23:34.856Z,100090.19
2022-11-01T10:26:04.866Z,100087.25
2022-11-01T10:28:47.293Z,100083.72
2022-11-01T10:31:23.082Z,100094.59
2022-11-01T10:34:00.253Z,100098.19
2022-11-01T10:36:33.456Z,100090.72
2022-11-01T10:42:15.246Z,100090.66
2022-11-01T10:44:48.413Z,100094.84
2022-11-01T10:47:20.580Z,100088.91
2022-11-01T10:50:05.330Z,100083.84
2022-11-01T10:52:47.713Z,100090.66
2022-11-01T10:55:23.054Z,100089.59
2022-11-01T10:57:57.553Z,100092.50
2022-11-01T11:00:25.838Z,100087.84
2022-11-01T11:03:02.178Z,100095.69
2022-11-01T11:05:33.482Z,100086.53
2022-11-01T11:08:05.172Z,100088.16
2022-11-01T11:10:36.285Z,100078.75
2022-11-01T11:13:08.980Z,100081.03
2022-11-01T11:15:45.561Z,100072.13
2022-11-01T11:18:26.003Z,100070.16
2022-11-01T11:21:00.251Z,100069.03
2022-11-01T11:23:33.058Z,100074.28
2022-11-01T11:26:09.075Z,100085.13
2022-11-01T11:28:44.362Z,100086.59
2022-11-01T11:31:16.016Z,100081.09
2022-11-01T11:33:51.730Z,100082.13
2022-11-01T11:36:29.978Z,100078.50
2022-11-01T11:38:58.686Z,100070.28
2022-11-01T11:41:31.949Z,100070.22
2022-11-01T11:44:01.132Z,100073.94
2022-11-01T11:46:29.476Z,100075.47
2022-11-01T11:49:01.392Z,100071.03
2022-11-01T11:51:31.865Z,100062.31
2022-11-01T11:54:28.252Z,100074.41
2022-11-01T11:57:12.347Z,100075.47
2022-11-01T11:59:42.599Z,100073.19
2022-11-01T12:02:20.735Z,100074.94
2022-11-01T12:04:56.404Z,100076.09
2022-11-01T12:07:37.770Z,100067.50
2022-11-01T12:10:28.243Z,100073.03
2022-11-01T12:12:58.766Z,100059.66
2022-11-01T12:15:31.095Z,100061.09
2022-11-01T12:18:16.013Z,100054.31
2022-11-01T12:20:50.899Z,100055.28
2022-11-01T12:23:30.035Z,100064.06
2022-11-01T12:26:01.512Z,100072.84
2022-11-01T12:28:38.897Z,100062.75
2022-11-01T12:31:18.371Z,100067.13
2022-11-01T12:33:52.757Z,100060.13
2022-11-01T12:36:29.163Z,100065.66
2022-11-01T12:39:04.369Z,100066.84
2022-11-01T12:41:39.893Z,100074.50
2022-11-01T12:44:29.981Z,100063.91
2022-11-01T12:47:06.964Z,100070.88
2022-11-01T12:49:42.591Z,100077.91
2022-11-01T12:52:21.055Z,100074.13
2022-11-01T12:55:01.788Z,100078.94
2022-11-01T12:57:30.450Z,100083.13
2022-11-01T13:00:01.548Z,100075.53
2022-11-01T13:02:51.810Z,100074.88
2022-11-01T13:05:23.258Z,100076.38
2022-11-01T13:08:05.775Z,100070.59
2022-11-01T13:10:38.043Z,100069.22
2022-11-01T13:13:18.322Z,100075.66
2022-11-01T13:16:01.797Z,100069.97
2022-11-01T13:18:43.702Z,100069.00
2022-11-01T13:21:20.141Z,100074.38
2022-11-01T13:23:54.984Z,100066.06
2022-11-01T13:26:28.000Z,100062.72
2022-11-01T13:29:09.217Z,100055.81
2022-11-01T13:31:55.467Z,100056.28
2022-11-01T13:34:41.048Z,100045.19
2022-11-01T13:37:21.630Z,100044.13
2022-11-01T13:40:09.721Z,100045.69
2022-11-01T13:42:41.566Z,100049.91
2022-11-01T13:45:34.826Z,100049.44
2022-11-01T13:48:18.799Z,100045.19
2022-11-01T13:51:11.810Z,100050.78
2022-11-01T13:53:47.440Z,100051.59
2022-11-01T13:56:25.970Z,100046.13
2022-11-01T13:58:54.667Z,100050.84
2022-11-01T14:01:35.640Z,100056.13
2022-11-01T14:04:57.926Z,100061.28
2022-11-01T14:07:28.816Z,100056.50
2022-11-01T14:09:57.544Z,100061.47
2022-11-01T14:12:40.953Z,100071.13
2022-11-01T14:15:23.442Z,100064.31
2022-11-01T14:18:07.785Z,100053.75
2022-11-01T14:20:46.461Z,100063.25
2022-11-01T14:23:59.599Z,100063.78
2022-11-01T14:27:02.162Z,100061.00
2022-11-01T14:29:31.201Z,100059.44
2022-11-01T14:32:00.692Z,100062.75
2022-11-01T14:34:35.646Z,100054.81
2022-11-01T14:37:26.977Z,100056.94
2022-11-01T14:40:41.757Z,100064.41
2022-11-01T14:43:18.578Z,100052.81
2022-11-01T14:45:53.521Z,100057.19
2022-11-01T14:48:29.357Z,100057.72
2022-11-01T14:51:03.745Z,100065.00
2022-11-01T14:53:37.649Z,100060.94
2022-11-01T14:56:18.199Z,100065.31
2022-11-01T14:58:46.868Z,100067.66
2022-11-01T15:01:18.825Z,100063.09
2022-11-01T15:03:57.221Z,100070.66
2022-11-01T15:06:30.127Z,100059.94
2022-11-01T15:09:02.836Z,100073.78
2022-11-01T15:11:34.895Z,100066.75
2022-11-01T15:14:08.353Z,100069.34
2022-11-01T15:16:37.603Z,100065.81
2022-11-01T15:19:11.159Z,100068.53
2022-11-01T15:21:47.278Z,100063.03
2022-11-01T15:24:26.877Z,100061.38
2022-11-01T15:26:56.565Z,100067.00
2022-11-01T15:29:25.915Z,100076.13
2022-11-01T15:32:00.183Z,100066.25
2022-11-01T15:34:30.648Z,100067.06
2022-11-01T15:37:00.458Z,100058.63
2022-11-01T15:39:30.745Z,100059.59
2022-11-01T15:41:59.059Z,100059.16
2022-11-01T15:44:29.746Z,100066.84
2022-11-01T15:47:01.251Z,100060.47
2022-11-01T15:49:35.134Z,100069.44
2022-11-01T15:52:07.969Z,100064.69
2022-11-01T15:54:46.050Z,100062.75
2022-11-01T15:57:21.481Z,100064.88
2022-11-01T15:59:58.890Z,100064.47
2022-11-01T16:02:32.866Z,100064.13
2022-11-01T16:05:01.924Z,100070.97
2022-11-01T16:07:33.857Z,100065.16
2022-11-01T16:10:05.899Z,100061.03
2022-11-01T16:12:38.925Z,100066.53
2022-11-01T16:15:19.966Z,100075.66
2022-11-01T16:17:48.673Z,100070.59
2022-11-01T16:20:38.707Z,100074.06
2022-11-01T16:23:09.127Z,100072.13
2022-11-01T16:25:40.639Z,100076.25
2022-11-01T16:28:31.771Z,100072.31
2022-11-01T16:31:01.505Z,100071.31
2022-11-01T16:33:43.510Z,100078.41
2022-11-01T16:36:35.801Z,100074.94
2022-11-01T16:39:25.560Z,100075.78
2022-11-01T16:41:55.253Z,100081.19
2022-11-01T16:44:24.687Z,100084.31
2022-11-01T16:46:55.069Z,100079.75
2022-11-01T16:49:26.094Z,100083.19
2022-11-01T16:51:56.414Z,100078.25
2022-11-01T16:54:26.506Z,100088.13
2022-11-01T16:56:59.038Z,100082.19
2022-11-01T16:59:32.435Z,100079.25
2022-11-01T17:02:02.353Z,100074.19
2022-11-01T17:04:30.841Z,100079.25
2022-11-01T17:06:59.179Z,100080.41
2022-11-01T17:09:32.059Z,100086.00
2022-11-01T17:12:01.796Z,100082.41
2022-11-01T17:14:30.639Z,100085.34
2022-11-01T17:17:00.296Z,100090.09
2022-11-01T17:19:35.197Z,100090.28
2022-11-01T17:22:08.098Z,100088.47
2022-11-01T17:24:36.743Z,100092.72
2022-11-01T17:27:07.097Z,100095.53
2022-11-01T17:29:35.422Z,100096.81
2022-11-01T17:32:08.831Z,100096.00
2022-11-01T17:34:37.526Z,100096.00
2022-11-01T17:37:07.676Z,100094.38
2022-11-01T17:39:37.571Z,100101.25
2022-11-01T17:42:07.445Z,100092.69
2022-11-01T17:44:36.011Z,100091.91
2022-11-01T17:47:04.709Z,100095.19
2022-11-01T17:49:33.003Z,100092.25
2022-11-01T17:52:01.264Z,100082.72
2022-11-01T17:54:29.539Z,100097.78
2022-11-01T17:56:59.816Z,100085.84
2022-11-01T17:59:31.108Z,100091.56
2022-11-01T18:01:59.607Z,100083.53
2022-11-01T18:04:31.428Z,100082.22
2022-11-01T18:07:04.704Z,100086.47
2022-11-01T18:09:33.111Z,100090.75
2022-11-01T18:12:10.077Z,100091.75
2022-11-01T18:14:55.987Z,100093.69
2022-11-01T18:17:48.495Z,100094.66
2022-11-01T18:20:32.572Z,100097.31
2022-11-01T18:23:05.642Z,100092.03
2022-11-01T18:25:40.575Z,100092.19
2022-11-01T18:28:14.155Z,100093.66
2022-11-01T18:30:48.215Z,100092.72
2022-11-01T18:33:24.457Z,100089.56
2022-11-01T18:36:00.626Z,100087.59
2022-11-01T18:38:34.578Z,100085.06
2022-11-01T18:41:07.009Z,100084.28
2022-11-01T18:43:39.232Z,100089.06
2022-11-01T18:46:24.673Z,100086.72
2022-11-01T18:48:59.909Z,100083.50
2022-11-01T18:51:31.760Z,100082.53
2022-11-01T18:54:22.300Z,100079.34
2022-11-01T18:56:54.176Z,100082.53
2022-11-01T18:59:31.453Z,100080.84
2022-11-01T19:02:13.618Z,100079.19
2022-11-01T19:04:43.719Z,100080.72
2022-11-01T19:07:15.077Z,100073.31
2022-11-01T19:09:49.977Z,100069.34
2022-11-01T19:12:26.904Z,100079.38
2022-11-01T19:15:03.061Z,100071.56
2022-11-01T19:17:39.463Z,100067.44
2022-11-01T19:20:23.090Z,100064.47
2022-11-01T19:22:51.397Z,100057.28
2022-11-01T19:25:23.360Z,100054.50
2022-11-01T19:27:54.523Z,100053.66
2022-11-01T19:30:28.502Z,100051.69
2022-11-01T19:33:03.315Z,100053.84
2022-11-01T19:35:31.718Z,100051.03
2022-11-01T19:38:00.945Z,100050.41
2022-11-01T19:40:34.175Z,100049.56
2022-11-01T19:43:13.092Z,100051.69
2022-11-01T19:45:47.082Z,100044.13
2022-11-01T19:48:20.926Z,100047.44
2022-11-01T19:50:49.550Z,100049.06
2022-11-01T19:53:26.168Z,100057.94
2022-11-01T19:55:56.350Z,100060.06
2022-11-01T19:58:30.011Z,100054.31
2022-11-01T20:01:49.015Z,100053.03
2022-11-01T20:04:29.805Z,100045.75
2022-11-01T20:07:01.921Z,100060.72
2022-11-01T20:09:32.131Z,100052.31
2022-11-01T20:12:00.375Z,100056.22
2022-11-01T20:14:28.860Z,100047.06
2022-11-01T20:16:57.330Z,100049.69
2022-11-01T20:19:27.087Z,100053.59
2022-11-01T20:21:55.508Z,100052.13
2022-11-01T20:24:23.987Z,100047.59
2022-11-01T20:26:52.752Z,100046.56
2022-11-01T20:29:21.252Z,100050.66
2022-11-01T20:31:49.963Z,100048.88
2022-11-01T20:34:18.456Z,100053.94
2022-11-01T20:37:08.206Z,100054.28
2022-11-01T20:39:36.647Z,100053.97
2022-11-01T20:42:05.532Z,100047.88
2022-11-01T20:44:33.815Z,100043.63
2022-11-01T20:47:02.857Z,100047.78
2022-11-01T20:49:31.540Z,100048.75
2022-11-01T20:52:26.103Z,100055.00
2022-11-01T20:54:49.723Z,100049.25
2022-11-01T20:57:27.546Z,100056.97
2022-11-01T20:59:57.426Z,100043.03
2022-11-01T21:02:27.079Z,100054.16
2022-11-01T21:05:02.029Z,100056.94
2022-11-01T21:07:34.574Z,100062.19
2022-11-01T21:10:03.372Z,100061.88
2022-11-01T21:12:45.270Z,100060.25
2022-11-01T21:15:35.618Z,100057.59
2022-11-01T21:18:44.133Z,100043.50
2022-11-01T21:21:46.382Z,100058.25
2022-11-01T21:24:31.876Z,100064.16
2022-11-01T21:27:14.874Z,100066.06
2022-11-01T21:29:47.400Z,100059.56
2022-11-01T21:32:30.578Z,100057.88
2022-11-01T21:34:59.808Z,100056.41
2022-11-01T21:37:30.789Z,100065.47
2022-11-01T21:40:06.746Z,100061.88
2022-11-01T21:42:46.146Z,100072.53
2022-11-01T21:45:31.901Z,100062.50
2022-11-01T21:48:14.972Z,100071.72
2022-11-01T21:50:44.145Z,100071.69
2022-11-01T21:53:13.944Z,100064.00
2022-11-01T21:55:43.957Z,100068.94
2022-11-01T21:58:12.365Z,100062.19
2022-11-01T22:00:41.007Z,100055.16
2022-11-01T22:03:09.409Z,100068.59
2022-11-01T22:05:39.585Z,100065.00
2022-11-01T22:08:07.963Z,100073.19
2022-11-01T22:10:36.361Z,100062.38
2022-11-01T22:13:07.034Z,100060.88
2022-11-01T22:15:36.097Z,100051.56
2022-11-01T22:18:04.795Z,100040.88
2022-11-01T22:20:33.305Z,100048.09
2022-11-01T22:23:01.842Z,100037.28
2022-11-01T22:25:30.456Z,100031.69
2022-11-01T22:28:00.094Z,100032.50
2022-11-01T22:30:30.196Z,100034.31
2022-11-01T22:32:58.486Z,100037.44
2022-11-01T22:35:27.289Z,100035.97
2022-11-01T22:37:55.887Z,100014.66
2022-11-01T22:40:24.276Z,100015.63
2022-11-01T22:42:58.786Z,100011.69
2022-11-01T22:45:27.085Z,100013.81
2022-11-01T22:47:56.788Z,100008.06
2022-11-01T22:50:29.516Z,99997.72
2022-11-01T22:52:57.931Z,99993.94
2022-11-01T22:55:28.806Z,99994.13
2022-11-01T22:58:03.988Z,100011.69
2022-11-01T23:00:36.117Z,100008.72
2022-11-01T23:03:20.382Z,100000.03
2022-11-01T23:05:51.535Z,99998.22
2022-11-01T23:08:28.202Z,100003.63
2022-11-01T23:10:57.411Z,100001.50
2022-11-01T23:13:49.121Z,100000.03
2022-11-01T23:16:24.898Z,99997.56
2022-11-01T23:18:59.548Z,99996.88
2022-11-01T23:21:29.077Z,99986.91
2022-11-01T23:23:57.448Z,99983.09
2022-11-01T23:26:26.011Z,99980.69
2022-11-01T23:28:58.167Z,99981.13
2022-11-01T23:31:29.855Z,99985.06
2022-11-01T23:34:00.017Z,99982.81
2022-11-01T23:36:31.325Z,99978.06
2022-11-01T23:39:06.851Z,99976.13
2022-11-01T23:41:39.015Z,99973.28
2022-11-01T23:44:16.739Z,99984.94
2022-11-01T23:46:45.601Z,99969.34
2022-11-01T23:49:21.182Z,99969.22
2022-11-01T23:51:49.862Z,99975.59
2022-11-01T23:54:25.063Z,99974.28
2022-11-01T23:56:55.791Z,99968.06
2022-11-01T23:59:24.457Z,99981.53
